Portada
METAR-TAF:

METAR-TAF

Aeroports :

Aeroport de Vigo

Vigo, Espanya

latitud: 42-13N, longitud: 008-38W, altitud: 264 m

Observació

L'informe es va fer fa 22 minuts, a les 08:30 UTC
Vent 6 kt del Sud-Oest
Temperatura 13°C
Humitat 54%
Pressió 1023 hPa
Visibilitat 10 km o més
sense núvols per sota de 1500 mi sense presència de cumulonimbus.

METAR: LEVX 240830Z 22006KT CAVOK 13/04 Q1023 NOSIG

Hora: 09:52 (08:52 UTC)

Pronòstic

L'informe es va fer fa 3 hores i 52 minuts, a les 05:00 UTC
Pronòstic vàlid del 24 a les 06 UTC al 25 a les 06 UTC
Vent 5 kt amb direcció variable
Visibilitat 10 km o més
sense núvols per sota de 1500 mi sense presència de cumulonimbus.
Probabilitat 40% :
Temporalment
l' 24 a les 13 UTC al 24 a les 18 UTC
Vent 10 kt del Oest

TAF: LEVX 240500Z 2406/2506 VRB05KT CAVOK TX23/2414Z TN08/2407Z PROB40 TEMPO 2413/2418 28010KT

Observacions i pronòstics meteorològics de més de 4000 aeroports (METAR i TAF).

Les estacions disponibles són els punts grocs i vermells al mapa.

Posi el ratolí al punt desitjat per veure el nom de l'estació.

Feu clic per veure les observacions i els pronòstics meteorològics.

Per canviar el mapa: feu clic els botons verds amb una creu de color negre per apropar; al botó verd amb un guió per allunyar la imatge; o en les fletxes verdes per a mapes adjacents.


METAR-TAF: